Time;durP1;ratioP1;P1;durP2;ratioP2;P2;SDS_P1;SDS_P2;PMS_P1;PMS_P2;Temp;Humidity;BMP_temperature;BMP_pressure;BME280_temperature;BME280_humidity;BME280_pressure;Samples;Min_cycle;Max_cycle;Signal;HPM_P1;HPM_P2
2023/08/29 00:00:38;;;;;;;12.52;8.98;;;;;;;29.89;46.66;98353.22;4316635;33;34423;-65
2023/08/29 00:03:06;;;;;;;12.43;7.80;;;;;;;29.89;46.75;98340.31;4316676;33;33565;-68
2023/08/29 00:05:34;;;;;;;13.00;8.65;;;;;;;29.88;46.65;98335.09;4316462;33;34796;-64
2023/08/29 00:08:01;;;;;;;14.10;8.18;;;;;;;29.84;46.59;98334.88;4316660;33;33586;-69
2023/08/29 00:10:30;;;;;;;14.82;7.95;;;;;;;29.86;46.55;98334.59;4316599;33;33937;-67
2023/08/29 00:12:57;;;;;;;10.98;7.78;;;;;;;29.86;46.61;98329.09;4316502;33;34457;-66
2023/08/29 00:15:25;;;;;;;13.32;8.48;;;;;;;29.86;46.69;98340.91;4316622;33;34656;-64
2023/08/29 00:17:53;;;;;;;13.82;8.23;;;;;;;29.86;46.81;98345.59;4303313;33;33583;-68
2023/08/29 00:20:20;;;;;;;11.80;8.00;;;;;;;29.86;46.79;98349.16;4316465;33;34393;-63
2023/08/29 00:22:47;;;;;;;15.20;8.10;;;;;;;29.85;46.79;98333.78;4316439;33;33755;-63
2023/08/29 00:25:15;;;;;;;13.38;7.72;;;;;;;29.85;46.84;98341.22;4316286;33;34782;-65
2023/08/29 00:27:43;;;;;;;11.82;7.68;;;;;;;29.84;46.85;98347.81;4316666;33;33301;-65
2023/08/29 00:30:11;;;;;;;12.82;7.90;;;;;;;29.84;46.82;98358.81;4316321;33;34224;-65
2023/08/29 00:32:39;;;;;;;10.50;7.47;;;;;;;29.83;46.97;98358.00;4316278;33;34004;-64
2023/08/29 00:35:07;;;;;;;12.68;8.35;;;;;;;29.84;46.80;98369.81;4316233;33;33853;-66
2023/08/29 00:37:34;;;;;;;14.52;7.93;;;;;;;29.84;46.88;98383.56;4316236;33;34343;-72
2023/08/29 00:40:03;;;;;;;12.10;7.30;;;;;;;29.84;46.84;98386.31;4316014;33;33488;-64
2023/08/29 00:42:31;;;;;;;13.10;7.47;;;;;;;29.82;46.86;98399.56;4303452;33;33751;-65
2023/08/29 00:44:58;;;;;;;12.18;7.62;;;;;;;29.83;46.85;98403.94;4316090;33;34722;-64
2023/08/29 00:47:27;;;;;;;9.88;7.55;;;;;;;29.83;46.86;98417.66;4315936;33;34454;-64
2023/08/29 00:49:55;;;;;;;14.65;7.85;;;;;;;29.83;46.83;98392.94;4302961;33;34589;-64
2023/08/29 00:52:22;;;;;;;9.65;7.57;;;;;;;29.82;46.75;98383.06;4302951;33;33704;-64
2023/08/29 00:54:50;;;;;;;11.88;7.90;;;;;;;29.81;46.82;98408.94;4315742;33;34869;-63
2023/08/29 00:57:17;;;;;;;13.52;7.87;;;;;;;29.80;46.93;98434.75;4311238;33;33779;-66
2023/08/29 00:59:45;;;;;;;14.68;7.90;;;;;;;29.80;46.89;98445.75;4301696;33;34089;-67
2023/08/29 01:02:12;;;;;;;11.32;7.20;;;;;;;29.80;46.84;98454.00;4301228;33;33880;-64
2023/08/29 01:04:40;;;;;;;11.20;7.75;;;;;;;29.79;46.80;98455.94;4290163;33;34851;-64
2023/08/29 01:07:08;;;;;;;11.65;7.80;;;;;;;29.80;46.76;98471.34;4303785;33;34082;-64
2023/08/29 01:09:37;;;;;;;13.52;7.53;;;;;;;29.79;46.76;98477.94;4303358;33;33932;-65
2023/08/29 01:12:14;;;;;;;10.77;7.43;;;;;;;29.79;46.76;98471.63;4290423;33;34760;-64
2023/08/29 01:14:52;;;;;;;9.77;7.45;;;;;;;29.80;46.60;98454.00;4290873;33;34210;-65
2023/08/29 01:17:31;;;;;;;13.25;8.10;;;;;;;29.76;46.63;98447.50;4303661;33;33562;-64
2023/08/29 01:19:59;;;;;;;13.15;8.77;;;;;;;29.74;46.48;98440.34;4279358;33;34027;-64
2023/08/29 01:22:54;;;;;;;11.98;7.40;;;;;;;29.71;46.41;98424.47;4290383;33;33703;-64
2023/08/29 01:25:50;;;;;;;11.95;8.15;;;;;;;29.72;46.36;98409.63;4292373;33;33831;-63
2023/08/29 01:28:21;;;;;;;14.98;9.30;;;;;;;29.65;46.28;98392.69;4303420;33;34440;-64
2023/08/29 01:30:49;;;;;;;13.35;8.15;;;;;;;29.61;46.42;98393.59;4289965;33;33944;-64
2023/08/29 01:33:19;;;;;;;12.10;8.45;;;;;;;29.60;46.57;98397.47;4303331;33;34739;-64
2023/08/29 01:35:47;;;;;;;12.88;8.25;;;;;;;29.60;46.63;98384.53;4303205;33;34818;-65
2023/08/29 01:38:17;;;;;;;12.82;7.72;;;;;;;29.60;46.59;98373.53;4303276;33;33362;-64
2023/08/29 01:40:45;;;;;;;12.43;8.68;;;;;;;29.59;46.79;98369.16;4290470;33;33994;-64
2023/08/29 01:43:12;;;;;;;14.45;8.13;;;;;;;29.61;46.76;98368.84;4289967;33;33899;-64
2023/08/29 01:45:40;;;;;;;12.07;8.52;;;;;;;29.61;46.79;98358.69;4278206;33;33169;-65
2023/08/29 01:48:10;;;;;;;10.73;7.87;;;;;;;29.60;46.81;98348.78;4303231;33;33348;-66
2023/08/29 01:50:38;;;;;;;15.38;8.45;;;;;;;29.60;46.70;98346.03;4303016;33;34378;-65
2023/08/29 01:53:06;;;;;;;13.07;8.25;;;;;;;29.61;46.49;98333.97;4306765;33;33580;-64
2023/08/29 01:55:33;;;;;;;12.13;8.05;;;;;;;29.57;46.54;98338.44;4285033;33;33986;-66
2023/08/29 01:58:02;;;;;;;12.27;8.52;;;;;;;29.57;46.62;98354.09;4311839;33;187367;-64
2023/08/29 02:00:31;;;;;;;13.00;8.15;;;;;;;29.56;46.72;98361.50;4292646;33;33263;-64
2023/08/29 02:02:59;;;;;;;13.80;8.35;;;;;;;29.58;46.72;98356.53;4304914;33;34477;-64
2023/08/29 02:05:27;;;;;;;11.43;8.03;;;;;;;29.58;46.82;98358.47;4317628;33;33883;-72
2023/08/29 02:07:55;;;;;;;11.12;7.45;;;;;;;29.59;46.77;98377.41;4304456;33;34497;-72
2023/08/29 02:10:23;;;;;;;10.50;7.72;;;;;;;29.60;46.76;98401.03;4317589;33;33689;-64
2023/08/29 02:12:50;;;;;;;11.45;8.52;;;;;;;29.59;46.75;98395.84;4317728;33;34009;-64
2023/08/29 02:15:18;;;;;;;10.60;8.27;;;;;;;29.58;46.82;98407.94;4317307;33;33457;-64
2023/08/29 02:17:47;;;;;;;10.25;8.02;;;;;;;29.57;46.78;98398.06;4317683;33;33551;-65
2023/08/29 02:20:15;;;;;;;12.35;8.00;;;;;;;29.57;46.70;98382.41;4317324;33;34784;-74
2023/08/29 02:22:42;;;;;;;15.77;8.45;;;;;;;29.57;46.71;98381.59;4317615;33;33925;-64
2023/08/29 02:25:10;;;;;;;10.73;8.20;;;;;;;29.57;46.56;98378.84;4317584;33;35053;-64
2023/08/29 02:27:38;;;;;;;10.05;7.87;;;;;;;29.55;46.58;98373.62;4317443;33;34022;-64
2023/08/29 02:30:06;;;;;;;13.07;7.60;;;;;;;29.56;46.59;98353.25;4317544;33;34759;-66
2023/08/29 02:32:34;;;;;;;10.30;7.35;;;;;;;29.51;46.65;98328.59;4317475;33;34668;-69
2023/08/29 02:35:03;;;;;;;10.43;7.60;;;;;;;29.50;46.77;98335.22;4317390;33;34664;-69
2023/08/29 02:37:32;;;;;;;13.75;8.82;;;;;;;29.51;46.80;98325.03;4304602;33;33770;-72
2023/08/29 02:40:01;;;;;;;;;;;;;;;29.51;46.83;98317.59;4317557;33;33951;-67
2023/08/29 02:42:29;;;;;;;13.05;8.50;;;;;;;29.63;46.51;98308.91;4317568;33;34131;-65
2023/08/29 02:44:56;;;;;;;14.60;8.10;;;;;;;29.54;46.74;98308.75;4317437;33;35212;-69
2023/08/29 02:47:25;;;;;;;14.87;8.85;;;;;;;29.51;46.85;98312.09;4317255;33;33381;-71
2023/08/29 02:49:52;;;;;;;11.75;8.27;;;;;;;29.51;46.87;98308.53;4317439;33;33386;-70
2023/08/29 02:52:21;;;;;;;11.55;7.78;;;;;;;29.50;46.90;98315.97;4317382;33;34801;-71
2023/08/29 02:54:48;;;;;;;11.70;8.15;;;;;;;29.49;46.88;98320.66;4317174;33;34086;-67
2023/08/29 02:57:16;;;;;;;13.23;7.95;;;;;;;29.49;46.78;98309.66;4299646;33;33647;-70
2023/08/29 02:59:44;;;;;;;10.98;8.05;;;;;;;29.48;46.74;98313.53;4289785;33;34636;-67
2023/08/29 03:02:11;;;;;;;11.30;7.45;;;;;;;29.46;46.61;98310.25;4302605;33;33569;-66
2023/08/29 03:04:39;;;;;;;11.45;7.93;;;;;;;29.47;46.71;98316.56;4289691;33;34219;-64
2023/08/29 03:07:07;;;;;;;12.32;8.18;;;;;;;29.47;46.68;98320.16;4303060;33;34497;-64
2023/08/29 03:09:34;;;;;;;11.82;7.60;;;;;;;29.47;46.62;98325.66;4289382;33;33189;-65
2023/08/29 03:12:03;;;;;;;13.00;7.78;;;;;;;29.47;46.60;98322.91;4302947;33;34953;-64
2023/08/29 03:14:31;;;;;;;14.90;8.10;;;;;;;29.48;46.58;98326.47;4302924;33;33562;-65
2023/08/29 03:16:59;;;;;;;11.45;8.02;;;;;;;29.48;46.59;98329.22;4302830;33;33377;-68
2023/08/29 03:19:27;;;;;;;11.07;7.55;;;;;;;29.47;46.58;98319.31;4302943;33;34362;-64
2023/08/29 03:21:55;;;;;;;10.65;7.72;;;;;;;29.46;46.55;98320.44;4302914;33;33491;-65
2023/08/29 03:24:22;;;;;;;9.50;7.15;;;;;;;29.47;46.55;98327.56;4302512;33;34551;-68
2023/08/29 03:26:50;;;;;;;13.85;8.27;;;;;;;29.46;46.59;98318.50;4301536;33;33817;-64
2023/08/29 03:29:18;;;;;;;13.30;7.75;;;;;;;29.46;46.57;98332.25;4302844;33;33414;-64
2023/08/29 03:31:45;;;;;;;11.85;7.40;;;;;;;29.47;46.57;98325.66;4302341;33;33697;-63
2023/08/29 03:34:13;;;;;;;12.50;7.50;;;;;;;29.45;46.53;98327.88;4302494;33;34252;-64
2023/08/29 03:36:41;;;;;;;11.77;7.12;;;;;;;29.44;46.34;98314.44;4302421;33;34050;-64
2023/08/29 03:39:08;;;;;;;10.35;7.53;;;;;;;29.43;46.33;98312.81;4302312;33;33917;-65
2023/08/29 03:41:37;;;;;;;10.30;6.95;;;;;;;29.43;46.26;98316.37;4302710;33;33523;-67
2023/08/29 03:44:05;;;;;;;13.52;7.37;;;;;;;29.44;46.23;98314.44;4302383;33;35078;-64
2023/08/29 03:46:32;;;;;;;10.63;6.43;;;;;;;29.42;46.22;98309.22;4297305;33;33567;-64
2023/08/29 03:49:00;;;;;;;12.18;7.53;;;;;;;29.41;46.21;98313.09;4316926;33;34751;-64
2023/08/29 03:51:27;;;;;;;12.88;6.78;;;;;;;29.41;46.12;98317.78;4316811;33;34642;-63
2023/08/29 03:53:56;;;;;;;10.45;7.20;;;;;;;29.41;46.09;98309.53;4303805;33;34777;-63
2023/08/29 03:56:24;;;;;;;9.75;6.87;;;;;;;29.37;45.99;98306.56;4317111;33;33989;-63
2023/08/29 03:58:52;;;;;;;12.40;7.05;;;;;;;29.35;46.15;98308.81;4316984;33;33497;-64
2023/08/29 04:01:19;;;;;;;10.65;7.40;;;;;;;29.35;46.19;98308.81;4303211;33;34996;-64
2023/08/29 04:03:47;;;;;;;9.60;6.50;;;;;;;29.33;46.14;98305.56;4316892;33;33708;-64
2023/08/29 04:06:20;;;;;;;12.55;6.57;;;;;;;29.33;46.07;98313.81;4316546;33;33664;-66
2023/08/29 04:08:48;;;;;;;11.27;6.97;;;;;;;29.31;46.17;98312.47;4316606;33;33968;-65
2023/08/29 04:11:17;;;;;;;11.30;7.45;;;;;;;29.31;46.20;98313.28;4316906;33;34897;-64
2023/08/29 04:13:45;;;;;;;11.40;7.28;;;;;;;29.31;46.17;98316.03;4316815;33;33998;-64
2023/08/29 04:16:13;;;;;;;10.02;6.93;;;;;;;29.30;46.23;98313.59;4316446;33;32729;-64
2023/08/29 04:18:41;;;;;;;10.48;6.87;;;;;;;29.29;46.24;98332.03;4316564;33;34275;-64
2023/08/29 04:21:09;;;;;;;11.90;7.55;;;;;;;29.28;46.28;98319.38;4316285;33;34940;-64
2023/08/29 04:23:37;;;;;;;9.57;6.95;;;;;;;29.28;46.30;98332.31;4316331;33;34384;-63
2023/08/29 04:26:04;;;;;;;9.60;6.50;;;;;;;29.26;46.28;98354.59;4316447;33;34087;-64
2023/08/29 04:28:32;;;;;;;10.80;6.78;;;;;;;29.27;46.36;98349.91;4316058;33;33970;-65
2023/08/29 04:31:07;;;;;;;11.95;6.97;;;;;;;29.28;46.18;98340.53;4316151;33;33660;-63
2023/08/29 04:33:35;;;;;;;9.73;6.55;;;;;;;29.23;46.16;98347.75;4302847;33;33772;-75
2023/08/29 04:36:03;;;;;;;11.45;7.35;;;;;;;29.22;46.32;98354.37;4315980;33;33780;-76
2023/08/29 04:38:31;;;;;;;10.95;7.10;;;;;;;29.21;46.47;98352.75;4317705;33;33680;-69
2023/08/29 04:41:00;;;;;;;10.65;6.75;;;;;;;29.22;46.52;98348.88;4318155;33;35220;-73
2023/08/29 04:43:28;;;;;;;13.10;7.12;;;;;;;29.23;46.52;98342.25;4318101;33;34162;-64
2023/08/29 04:45:56;;;;;;;10.95;6.75;;;;;;;29.24;46.52;98348.59;4318133;33;35083;-66
2023/08/29 04:48:24;;;;;;;11.63;6.97;;;;;;;29.25;46.51;98349.41;4318524;33;33957;-69
2023/08/29 04:50:51;;;;;;;10.77;6.30;;;;;;;29.26;46.50;98359.28;4318340;33;33641;-68
2023/08/29 04:53:19;;;;;;;11.98;7.03;;;;;;;29.27;46.49;98364.44;4292880;33;33196;-71
2023/08/29 04:55:47;;;;;;;11.20;7.30;;;;;;;29.27;46.49;98364.44;4304952;33;32520;-73
2023/08/29 04:58:15;;;;;;;19.95;7.20;;;;;;;29.29;46.45;98366.91;4317900;33;33973;-75
2023/08/29 05:00:42;;;;;;;14.80;7.20;;;;;;;29.30;46.65;98376.78;4318236;33;33360;-74
2023/08/29 05:03:10;;;;;;;14.60;7.35;;;;;;;29.32;46.62;98380.84;4318101;33;34277;-76
2023/08/29 05:05:38;;;;;;;12.85;6.62;;;;;;;29.33;46.59;98385.25;4318084;33;33617;-73
2023/08/29 05:08:07;;;;;;;13.75;6.82;;;;;;;29.33;46.55;98385.25;4318244;33;33821;-70
2023/08/29 05:10:35;;;;;;;12.77;6.70;;;;;;;29.34;46.50;98386.88;4318182;33;33996;-72
2023/08/29 05:13:03;;;;;;;11.40;6.70;;;;;;;29.35;46.53;98385.75;4318235;33;34128;-75
2023/08/29 05:15:31;;;;;;;9.90;6.47;;;;;;;29.36;46.53;98392.06;4318025;33;34587;-75
2023/08/29 05:18:00;;;;;;;10.63;6.73;;;;;;;29.37;46.52;98393.69;4318163;33;34943;-72
2023/08/29 05:20:27;;;;;;;15.98;6.55;;;;;;;29.39;46.49;98391.47;4317182;33;33920;-76
2023/08/29 05:22:55;;;;;;;9.27;6.55;;;;;;;29.40;46.49;98409.59;4303457;33;33967;-77
2023/08/29 05:25:23;;;;;;;11.30;6.82;;;;;;;29.42;46.47;98410.09;4303436;33;33732;-74
2023/08/29 05:27:50;;;;;;;10.73;6.20;;;;;;;29.43;46.48;98409.00;4303578;33;33880;-78
2023/08/29 05:30:18;;;;;;;11.10;6.97;;;;;;;29.43;46.45;98411.75;4303301;33;34010;-76
2023/08/29 05:32:45;;;;;;;9.27;6.70;;;;;;;29.44;46.47;98414.19;4302603;33;33711;-75
2023/08/29 05:35:13;;;;;;;12.30;6.62;;;;;;;29.44;46.45;98422.44;4303140;33;33249;-75
2023/08/29 05:37:41;;;;;;;11.25;6.72;;;;;;;29.45;46.44;98418.56;4303408;33;34833;-75
2023/08/29 05:40:08;;;;;;;9.95;6.60;;;;;;;29.46;46.43;98387.19;4303426;33;34132;-73
2023/08/29 05:42:36;;;;;;;10.27;6.32;;;;;;;29.48;46.44;98389.69;4303537;33;35024;-76
2023/08/29 05:45:04;;;;;;;9.30;6.90;;;;;;;29.49;46.45;98381.12;4303436;33;34144;-69
2023/08/29 05:47:31;;;;;;;9.32;6.22;;;;;;;29.49;46.45;98394.03;4317181;33;33489;-76
2023/08/29 05:49:59;;;;;;;12.70;6.40;;;;;;;29.50;46.44;98359.94;4317143;33;33938;-74
2023/08/29 05:52:27;;;;;;;10.38;6.00;;;;;;;29.50;46.44;98357.19;4317741;33;34818;-75
2023/08/29 05:54:54;;;;;;;8.55;6.57;;;;;;;29.51;46.45;98361.56;4317735;33;34699;-74
2023/08/29 05:57:22;;;;;;;12.40;6.30;;;;;;;29.51;46.46;98361.56;4317788;33;34059;-76
2023/08/29 05:59:49;;;;;;;10.07;6.28;;;;;;;29.52;46.47;98368.72;4317886;33;34728;-73
2023/08/29 06:02:17;;;;;;;11.07;6.57;;;;;;;29.53;46.47;98397.81;4317686;33;33820;-67
2023/08/29 06:04:45;;;;;;;9.48;6.75;;;;;;;29.53;46.46;98403.31;4317951;33;34571;-67
2023/08/29 06:07:12;;;;;;;8.73;5.95;;;;;;;29.53;46.49;98417.06;4304323;33;34764;-65
2023/08/29 06:09:40;;;;;;;9.95;6.47;;;;;;;29.54;46.48;98429.69;4317538;33;34094;-73
2023/08/29 06:12:09;;;;;;;9.73;6.47;;;;;;;29.54;46.49;98413.19;4317525;33;34504;-74
2023/08/29 06:14:36;;;;;;;9.18;6.45;;;;;;;29.54;46.48;98374.72;4317508;33;34521;-70
2023/08/29 06:17:04;;;;;;;8.73;6.35;;;;;;;29.57;46.44;98362.34;4317521;33;34652;-75
2023/08/29 06:19:32;;;;;;;10.38;6.43;;;;;;;29.56;46.48;98353.25;4304572;33;33784;-74
2023/08/29 06:21:59;;;;;;;10.75;6.57;;;;;;;29.55;46.51;98379.13;4317914;33;33764;-74
2023/08/29 06:24:27;;;;;;;9.40;6.18;;;;;;;29.56;46.52;98389.00;4317486;33;33721;-76
2023/08/29 06:26:55;;;;;;;9.63;6.53;;;;;;;29.58;46.53;98405.19;4317689;33;34596;-75
2023/08/29 06:29:23;;;;;;;10.82;5.90;;;;;;;29.57;46.54;98407.13;4304377;33;33487;-75
2023/08/29 06:31:50;;;;;;;10.70;6.60;;;;;;;29.58;46.56;98406.00;4317392;33;34669;-76
2023/08/29 06:34:18;;;;;;;10.60;6.65;;;;;;;29.59;46.58;98402.16;4317605;33;33840;-72
2023/08/29 06:36:46;;;;;;;10.13;6.45;;;;;;;29.59;46.59;98398.56;4317359;33;33970;-66
2023/08/29 06:39:13;;;;;;;8.82;6.62;;;;;;;29.60;46.59;98397.47;4317282;33;34969;-65
2023/08/29 06:41:41;;;;;;;9.50;6.32;;;;;;;29.60;46.60;98380.97;4317522;33;35105;-71
2023/08/29 06:44:08;;;;;;;9.82;6.57;;;;;;;29.59;46.63;98380.16;4317400;33;34500;-74
2023/08/29 06:46:36;;;;;;;11.27;7.03;;;;;;;29.60;46.65;98420.25;4317544;33;33978;-67
2023/08/29 06:49:05;;;;;;;8.15;6.37;;;;;;;29.61;46.66;98418.31;4317404;33;34017;-75
2023/08/29 06:51:34;;;;;;;9.77;6.70;;;;;;;29.61;46.67;98416.41;4317446;33;34906;-74
2023/08/29 06:54:01;;;;;;;9.68;6.32;;;;;;;29.60;46.67;98423.00;4317394;33;33448;-75
2023/08/29 06:56:29;;;;;;;12.90;6.60;;;;;;;29.60;46.70;98464.22;4317333;33;34774;-75
2023/08/29 06:58:58;;;;;;;9.98;6.93;;;;;;;29.60;46.71;98491.72;4317213;33;33742;-76
2023/08/29 07:01:26;;;;;;;8.48;5.70;;;;;;;29.60;46.71;98518.41;4317319;33;33891;-73
2023/08/29 07:03:54;;;;;;;10.38;5.75;;;;;;;29.60;46.70;98529.37;4317364;33;34480;-75
2023/08/29 07:06:21;;;;;;;8.40;5.50;;;;;;;29.58;46.76;98515.97;4317146;33;34652;-77
2023/08/29 07:08:49;;;;;;;9.50;6.60;;;;;;;29.58;46.76;98521.44;4317356;33;33577;-76
2023/08/29 07:11:17;;;;;;;11.32;7.10;;;;;;;29.58;46.78;98509.66;4317422;33;33738;-75
2023/08/29 07:13:45;;;;;;;9.57;6.70;;;;;;;29.58;46.71;98510.47;4317077;33;33490;-75
2023/08/29 07:16:12;;;;;;;9.48;6.10;;;;;;;29.60;46.68;98515.66;4317292;33;33922;-74
2023/08/29 07:18:40;;;;;;;10.73;6.50;;;;;;;29.58;46.68;98518.72;4315560;33;34458;-72
2023/08/29 07:21:07;;;;;;;10.18;5.95;;;;;;;29.59;46.67;98525.81;4316630;33;34185;-75
2023/08/29 07:23:35;;;;;;;8.07;5.80;;;;;;;29.58;46.62;98506.91;4317284;33;33114;-69
2023/08/29 07:26:03;;;;;;;13.02;6.80;;;;;;;29.58;46.56;98491.22;4305203;33;33875;-67
2023/08/29 07:28:31;;;;;;;12.30;6.85;;;;;;;29.56;46.57;98504.44;4302454;33;33660;-69
2023/08/29 07:30:58;;;;;;;9.85;5.55;;;;;;;29.57;46.53;98506.09;4302550;33;33633;-65
2023/08/29 07:33:26;;;;;;;9.43;7.07;;;;;;;29.56;46.53;98515.41;4302430;33;34492;-67
2023/08/29 07:35:54;;;;;;;9.77;6.18;;;;;;;29.57;46.47;98502.53;4289213;33;33926;-65
2023/08/29 07:38:21;;;;;;;12.10;6.37;;;;;;;29.56;46.48;98496.19;4313845;33;33882;-76
2023/08/29 07:40:49;;;;;;;11.45;6.15;;;;;;;29.56;46.46;98485.19;4317058;33;34179;-76
2023/08/29 07:43:17;;;;;;;12.18;7.18;;;;;;;29.56;46.47;98489.88;4317201;33;33643;-70
2023/08/29 07:45:46;;;;;;;12.25;6.68;;;;;;;29.56;46.44;98465.94;4313869;33;34065;-75
2023/08/29 07:48:14;;;;;;;12.23;7.22;;;;;;;29.54;46.50;98459.09;4302419;33;34799;-76
2023/08/29 07:50:42;;;;;;;12.45;7.10;;;;;;;29.56;46.52;98451.41;4302243;33;35037;-66
2023/08/29 07:53:09;;;;;;;16.55;6.90;;;;;;;29.54;46.58;98446.16;4305088;33;33743;-76
2023/08/29 07:55:37;;;;;;;9.50;7.28;;;;;;;29.54;46.62;98440.69;4316891;33;33976;-64
2023/08/29 07:58:04;;;;;;;12.48;7.15;;;;;;;29.54;46.60;98448.91;4316537;33;34112;-72
2023/08/29 08:00:32;;;;;;;13.52;7.30;;;;;;;29.54;46.59;98437.94;4316840;33;33750;-70
2023/08/29 08:03:02;;;;;;;11.60;6.47;;;;;;;29.55;46.60;98449.75;4308294;33;33492;-71
2023/08/29 08:05:30;;;;;;;10.43;7.28;;;;;;;29.55;46.60;98489.06;4302304;33;33830;-75
2023/08/29 08:07:57;;;;;;;11.18;7.55;;;;;;;29.55;46.60;98504.72;4302320;33;34155;-76
2023/08/29 08:10:25;;;;;;;10.40;7.55;;;;;;;29.55;46.58;98489.06;4302516;33;33862;-71
2023/08/29 08:12:53;;;;;;;11.32;7.53;;;;;;;29.55;46.54;98497.31;4308397;33;34295;-73
2023/08/29 08:15:21;;;;;;;8.95;6.68;;;;;;;29.55;46.56;98502.00;4318450;33;34711;-71
2023/08/29 08:17:50;;;;;;;9.90;6.95;;;;;;;29.54;46.56;98501.13;4318584;33;33912;-65
2023/08/29 08:20:18;;;;;;;9.25;6.97;;;;;;;29.54;46.54;98503.06;4318446;33;33977;-64
2023/08/29 08:22:46;;;;;;;11.45;6.80;;;;;;;29.56;46.51;98500.88;4318543;33;33759;-72
2023/08/29 08:25:14;;;;;;;9.55;6.75;;;;;;;29.55;46.54;98500.06;4318362;33;33980;-73
2023/08/29 08:27:41;;;;;;;12.90;6.85;;;;;;;29.55;46.53;98502.81;4318407;33;34200;-69
2023/08/29 08:30:09;;;;;;;10.57;6.97;;;;;;;29.55;46.53;98519.28;4318508;33;34093;-70
2023/08/29 08:32:37;;;;;;;9.30;6.72;;;;;;;29.54;46.56;98520.38;4318215;33;33851;-69
2023/08/29 08:35:05;;;;;;;12.45;7.35;;;;;;;29.54;46.60;98528.63;4318280;33;33809;-66
2023/08/29 08:37:34;;;;;;;13.10;6.70;;;;;;;29.54;46.61;98544.31;4314012;33;34171;-75
2023/08/29 08:40:09;;;;;;;10.43;6.65;;;;;;;29.55;46.59;98551.47;4310146;33;34397;-76
2023/08/29 08:42:43;;;;;;;11.18;6.80;;;;;;;29.55;46.60;98552.28;4311028;33;34399;-74
2023/08/29 08:45:11;;;;;;;8.27;6.05;;;;;;;29.54;46.60;98556.09;4311207;33;33929;-74
2023/08/29 08:47:39;;;;;;;8.82;6.10;;;;;;;29.55;46.59;98577.00;4301142;33;33550;-74
2023/08/29 08:50:10;;;;;;;13.35;6.68;;;;;;;29.56;46.60;98586.88;4302863;33;34074;-66
2023/08/29 08:52:38;;;;;;;9.05;5.97;;;;;;;29.56;46.60;98597.87;4291003;33;34492;-73
2023/08/29 08:55:06;;;;;;;11.63;6.03;;;;;;;29.56;46.59;98608.88;4310249;33;34275;-69
2023/08/29 08:57:34;;;;;;;9.75;6.78;;;;;;;29.56;46.59;98619.88;4302554;33;34892;-75
2023/08/29 09:00:02;;;;;;;8.90;6.70;;;;;;;29.57;46.57;98623.47;4309958;33;35033;-66
2023/08/29 09:02:30;;;;;;;10.45;6.80;;;;;;;29.56;46.54;98600.63;4318109;33;34413;-70
2023/08/29 09:04:58;;;;;;;9.82;7.10;;;;;;;29.56;46.54;98597.87;4304841;33;34626;-66
2023/08/29 09:07:26;;;;;;;8.43;5.82;;;;;;;29.56;46.53;98575.06;4318173;33;34696;-77
2023/08/29 09:10:15;;;;;;;9.40;6.25;;;;;;;29.55;46.54;98571.50;4305018;33;34089;-72
2023/08/29 09:12:49;;;;;;;10.30;6.57;;;;;;;29.58;46.50;98559.94;4318018;33;34310;-75
2023/08/29 09:15:19;;;;;;;11.23;6.28;;;;;;;29.57;46.52;98541.81;4304222;33;34655;-71
2023/08/29 09:17:50;;;;;;;9.23;6.70;;;;;;;29.55;46.55;98549.53;4304539;33;33885;-71
2023/08/29 09:20:18;;;;;;;9.50;6.18;;;;;;;29.55;46.56;98527.53;4318044;33;34761;-75
2023/08/29 09:22:46;;;;;;;8.68;6.53;;;;;;;29.54;46.58;98505.81;4292894;33;33161;-66
2023/08/29 09:25:14;;;;;;;12.80;5.93;;;;;;;29.55;46.60;98516.53;4303909;33;34605;-74
2023/08/29 09:27:44;;;;;;;12.73;7.32;;;;;;;29.54;46.61;98514.87;4317975;33;33851;-65
2023/08/29 09:30:13;;;;;;;14.80;6.72;;;;;;;29.54;46.62;98511.31;4318110;33;33932;-65
2023/08/29 09:32:46;;;;;;;10.65;6.70;;;;;;;29.53;46.63;98507.75;4317825;33;33668;-64
2023/08/29 09:35:15;;;;;;;8.88;6.43;;;;;;;29.53;46.64;98510.50;4317903;33;33911;-64
2023/08/29 09:37:47;;;;;;;;;;;;;;;29.53;46.67;98484.97;4318167;33;33644;-65
2023/08/29 09:40:17;;;;;;;11.75;6.53;;;;;;;29.65;46.40;98466.09;4317960;33;35164;-64
2023/08/29 09:43:04;;;;;;;9.23;6.50;;;;;;;29.56;46.60;98456.88;4296770;33;33687;-68
2023/08/29 09:45:32;;;;;;;11.38;7.30;;;;;;;29.56;46.62;98451.41;4311800;33;34681;-67
2023/08/29 09:48:01;;;;;;;11.05;7.22;;;;;;;29.53;46.66;98439.06;4306897;33;33988;-67
2023/08/29 09:50:29;;;;;;;10.73;6.50;;;;;;;29.53;46.68;98441.00;4314641;33;34197;-67
2023/08/29 09:52:59;;;;;;;11.25;6.75;;;;;;;29.54;46.67;98442.62;4283466;33;34104;-71
2023/08/29 09:55:27;;;;;;;12.37;6.50;;;;;;;29.53;46.68;98424.50;4311232;33;34103;-68
2023/08/29 09:57:55;;;;;;;12.48;6.87;;;;;;;29.52;46.71;98423.69;4292452;33;34059;-68
2023/08/29 10:00:22;;;;;;;11.30;6.68;;;;;;;29.53;46.69;98424.50;4304549;33;34887;-67
2023/08/29 10:02:55;;;;;;;10.85;6.43;;;;;;;29.53;46.67;98424.50;4317815;33;33672;-74
2023/08/29 10:05:28;;;;;;;11.77;7.05;;;;;;;29.54;46.67;98424.19;4317557;33;33889;-63
2023/08/29 10:07:57;;;;;;;12.80;7.32;;;;;;;29.54;46.69;98426.94;4304453;33;33889;-72
2023/08/29 10:10:24;;;;;;;10.88;6.87;;;;;;;29.54;46.67;98423.37;4304394;33;33916;-66
2023/08/29 10:12:53;;;;;;;10.00;6.78;;;;;;;29.54;46.67;98426.13;4292724;33;34387;-73
2023/08/29 10:15:22;;;;;;;10.43;6.78;;;;;;;29.54;46.69;98426.94;4292439;33;33077;-71
2023/08/29 10:17:55;;;;;;;11.15;6.70;;;;;;;29.54;46.66;98424.19;4317725;33;34463;-73
2023/08/29 10:20:24;;;;;;;10.45;6.95;;;;;;;29.54;46.67;98443.44;4292678;33;34225;-74
2023/08/29 10:22:51;;;;;;;11.80;7.18;;;;;;;29.55;46.70;98439.59;4292520;33;34510;-70
2023/08/29 10:25:23;;;;;;;12.00;6.85;;;;;;;29.55;46.72;98453.31;4315626;33;33442;-72
2023/08/29 10:27:51;;;;;;;11.15;6.28;;;;;;;29.56;46.79;98465.12;4304773;33;33845;-66
2023/08/29 10:30:23;;;;;;;13.20;6.97;;;;;;;29.56;46.80;98471.44;4304371;33;34158;-73
2023/08/29 10:32:53;;;;;;;12.18;6.40;;;;;;;29.55;46.81;98488.25;4304824;33;33693;-67
2023/08/29 10:35:22;;;;;;;;;;;;;;;29.54;46.80;98481.09;4304497;33;33567;-63
2023/08/29 10:37:53;;;;;;;8.70;6.30;;;;;;;29.65;46.56;98471.59;4317661;33;34258;-70
2023/08/29 10:40:21;;;;;;;10.20;6.68;;;;;;;29.55;46.75;98466.25;4317411;33;34078;-68
2023/08/29 10:42:57;;;;;;;10.30;7.07;;;;;;;29.52;46.82;98453.06;4304222;33;33819;-67
2023/08/29 10:45:47;;;;;;;13.18;6.72;;;;;;;29.51;46.80;98448.69;4302641;33;33972;-66
2023/08/29 10:48:17;;;;;;;;;;;;;;;29.51;46.78;98448.69;4317690;33;33916;-68
2023/08/29 10:50:47;;;;;;;10.95;6.60;;;;;;;29.58;46.60;98452.75;4317320;33;34309;-65
2023/08/29 10:53:18;;;;;;;10.23;6.60;;;;;;;29.47;46.82;98443.81;4317385;33;34524;-67
2023/08/29 10:56:00;;;;;;;12.35;6.90;;;;;;;29.45;46.94;98442.47;4304097;33;33189;-70
2023/08/29 10:58:38;;;;;;;11.20;6.93;;;;;;;29.46;46.94;98428.44;4304499;33;33701;-71
2023/08/29 11:01:27;;;;;;;11.77;6.47;;;;;;;29.46;47.01;98424.88;4317177;33;33900;-68
2023/08/29 11:03:55;;;;;;;12.27;6.82;;;;;;;29.44;47.06;98413.38;4306381;33;33301;-67
2023/08/29 11:06:24;;;;;;;9.73;6.43;;;;;;;29.44;47.12;98410.63;4304075;33;34044;-70
2023/08/29 11:09:15;;;;;;;10.82;6.90;;;;;;;29.43;47.14;98395.25;4304240;33;33682;-65
2023/08/29 11:11:42;;;;;;;9.75;6.45;;;;;;;29.45;47.13;98374.59;4304010;33;34123;-66
2023/08/29 11:14:10;;;;;;;10.07;6.45;;;;;;;29.43;47.25;98378.78;4314917;33;33446;-69
2023/08/29 11:16:59;;;;;;;11.02;7.00;;;;;;;29.42;47.34;98386.16;4302731;33;34067;-65
2023/08/29 11:19:27;;;;;;;10.13;6.50;;;;;;;29.41;47.38;98383.72;4299611;33;34040;-70
2023/08/29 11:21:55;;;;;;;10.52;5.95;;;;;;;29.42;47.36;98394.41;4292153;33;34791;-64
2023/08/29 11:24:22;;;;;;;8.30;6.53;;;;;;;29.41;47.40;98395.53;4280010;33;33666;-69
2023/08/29 11:26:50;;;;;;;8.55;6.70;;;;;;;29.42;47.45;98390.84;4313978;33;33883;-71
2023/08/29 11:29:18;;;;;;;10.68;6.25;;;;;;;29.41;47.50;98389.22;4302606;33;34899;-73
2023/08/29 11:31:45;;;;;;;13.23;7.20;;;;;;;29.41;47.46;98395.53;4308492;33;34215;-63
2023/08/29 11:34:14;;;;;;;10.20;6.65;;;;;;;29.41;47.44;98401.03;4310676;33;33644;-68
2023/08/29 11:36:44;;;;;;;7.40;6.18;;;;;;;29.41;47.38;98392.78;4317105;33;34440;-72